• Join FlightAware (Why Join?)
  • Login
  • US Flag 
03:53PM EDT


 

Airport Tracker/Info


-or-


 

Live Flight TrackerFlight Track Log ✈ FLG3752 ✈ 29-Apr-2013 ✈ KATL - KFWA

Flight Track Log - Related Links

Times and Time Zones

All times are in EDT time to prevent confusion due to time zone crossing. See the FLG3752 flight status page for this flight to view local times or setup timezone preferences in your user account.

Time Position Orientation Groundspeed Altitude Reporting Facility
EDT Latitude Longitude Course Direction KTS MPH feet Rate Location/Type
07:27PM 33.6494 -84.4656 320° Northwest 440 506 2,600  Level Atlanta Center
07:28PM 33.6681 -84.5256 290° West 338 389 3,400 1,560 Climbing Atlanta Center
07:29PM 33.6833 -84.5500 307° West 264 304 4,700 3,120 Climbing Atlanta TRACON
07:29PM 33.7333 -84.5833 331° Northwest 278 320 7,200 2,280 Climbing Atlanta TRACON
07:30PM 33.8927 -84.2260 320° Northwest  Level FlightAware Approximate
07:31PM 33.9776 -84.3109 320° Northwest  Level FlightAware Approximate
07:31PM 33.8786 -84.5842 360° North 306 352 11,000  Level Atlanta Center
07:32PM 34.0625 -84.3958 320° Northwest  Level FlightAware Approximate
07:32PM 33.9808 -84.5850 360° North 322 371 12,100  Level Atlanta Center
07:33PM 34.0789 -84.5881 359° North 343 395 13,600 1,500 Climbing Atlanta Center
07:34PM 34.1811 -84.5911 359° North 355 409 15,200 1,500 Climbing Atlanta Center
07:35PM 34.2836 -84.5969 357° North 360 414 16,700 1,500 Climbing Atlanta Center
07:36PM 34.3836 -84.6178 350° North 365 420 18,200 1,320 Climbing Atlanta Center
07:37PM 34.4753 -84.6411 348° North 371 427 19,400 1,200 Climbing Atlanta Center
07:38PM 34.5775 -84.6644 349° North 371 427 20,600 960 Climbing Atlanta Center
07:39PM 34.6878 -84.6956 347° North 371 427 21,400 660 Climbing Atlanta Center
07:40PM 34.7961 -84.7217 349° North 376 433 22,000 600 Climbing Atlanta Center
07:41PM 34.9067 -84.7481 349° North 393 452 22,700 720 Climbing Atlanta Center
07:42PM 35.0172 -84.7767 348° North 393 452 23,500 780 Climbing Atlanta Center
07:43PM 35.1297 -84.8058 348° North 398 458 24,300 780 Climbing Atlanta Center
07:44PM 35.2400 -84.8322 349° North 403 464 25,100 840 Climbing Atlanta Center
07:45PM 35.3506 -84.8586 349° North 403 464 26,000 840 Climbing Atlanta Center
07:46PM 35.4608 -84.8878 348° North 403 464 26,800 780 Climbing Atlanta Center
07:47PM 35.5733 -84.9144 349° North 403 464 27,600 660 Climbing Atlanta Center
07:48PM 35.6817 -84.9439 348° North 403 464 28,200 540 Climbing Atlanta Center
07:49PM 35.7897 -84.9758 347° North 403 464 28,700 480 Climbing Atlanta Center
07:51PM 36.0256 -85.0294 350° North 413 475 29,800 360 Climbing Indianapolis Center
07:52PM 36.1386 -85.0581 348° North 413 475 30,000 60 Climbing Indianapolis Center
07:53PM 36.2533 -85.0875 348° North 418 481 30,000  Level Indianapolis Center
07:54PM 36.3711 -85.1183 348° North 430 495 30,000  Level Indianapolis Center
07:55PM 36.4886 -85.1483 348° North 429 494 30,000  Level Indianapolis Center
07:56PM 36.6294 -85.1853 348° North 432 497 30,000  Level Indianapolis Center
07:58PM 36.7472 -85.2158 348° North 432 497 30,000  Level Indianapolis Center
07:59PM 36.8656 -85.2472 348° North 434 499 30,000  Level Indianapolis Center
08:00PM 36.9850 -85.2753 349° North 437 503 30,000  Level Indianapolis Center
08:01PM 37.1136 -85.2714 North 440 506 30,000  Level Indianapolis Center
08:02PM 37.2364 -85.2686 North 438 504 30,000  Level Indianapolis Center
08:03PM 37.3603 -85.2667 North 442 509 30,000  Level Indianapolis Center
08:04PM 37.4833 -85.2631 North 439 505 30,000  Level Indianapolis Center
08:05PM 37.6064 -85.2622 360° North 440 506 30,000  Level Indianapolis Center
08:06PM 37.7522 -85.2594 North 445 512 30,000  Level Indianapolis Center
08:07PM 37.8756 -85.2553 North 450 518 30,000  Level Indianapolis Center
08:08PM 38.0000 -85.2531 North 448 516 30,000  Level Indianapolis Center
08:09PM 38.1239 -85.2508 North 445 512 30,000  Level Indianapolis Center
08:10PM 38.2478 -85.2489 North 444 511 30,000  Level Indianapolis Center
08:11PM 38.3722 -85.2461 North 447 514 30,000  Level Indianapolis Center
08:12PM 38.4958 -85.2442 North 445 512 30,000  Level Indianapolis Center
08:13PM 38.6422 -85.2406 North 442 509 30,000 -540 Level Indianapolis Center
08:14PM 38.7675 -85.2381 North 448 516 29,000 -1,260 Descending Indianapolis Center
08:15PM 38.8933 -85.2358 North 448 516 27,500 -1,440 Descending Indianapolis Center
08:16PM 39.0175 -85.2339 North 445 512 26,100 -1,260 Descending Indianapolis Center
08:17PM 39.1417 -85.2308 North 443 510 24,900 -1,380 Descending Indianapolis Center
08:18PM 39.2639 -85.2289 North 440 506 23,300 -960 Descending Indianapolis Center
08:19PM 39.3839 -85.2264 North 433 498 23,000 -180 Descending Indianapolis Center
08:20PM 39.4953 -85.2242 North 407 468 23,000  Level Indianapolis Center
08:21PM 39.6269 -85.2217 North 404 465 23,000  Level Indianapolis Center
08:22PM 39.7419 -85.2192 North 409 471 23,000  Level Indianapolis Center
08:23PM 39.8575 -85.2172 North 412 474 23,000 -360 Level Indianapolis Center
08:24PM 39.9714 -85.2144 North 410 472 22,300 -1,260 Descending Indianapolis Center
08:25PM 40.0797 -85.2122 North 390 449 20,500 -1,800 Descending Indianapolis Center
08:26PM 40.1842 -85.2097 North 377 434 18,600 -2,220 Descending Indianapolis Center
08:27PM 40.2833 -85.2083 North 360 414 16,000 -2,820 Descending Indianapolis Center
08:28PM 40.3928 -85.2061 North 339 390 12,900 -2,520 Descending Indianapolis Center
08:29PM 40.4822 -85.2044 North 326 375 10,900 -1,800 Descending Indianapolis Center
08:30PM 40.5614 -85.2033 North 292 336 9,200 -1,500 Descending Indianapolis Center
08:31PM 40.6358 -85.2019 North 271 312 7,900 -1,200 Descending Indianapolis Center
08:32PM 40.6481 -85.1997 North 271 312 7,700 -1,200 Descending Chicago Center
08:33PM 40.7264 -85.1992 360° North 265 305 6,400 -1,200 Descending Chicago Center
08:34PM 40.7989 -85.1967 North 262 302 5,300 -1,020 Descending Chicago Center
08:35PM 40.8717 -85.1897 North 262 302 4,300 -960 Descending Chicago Center
08:36PM 40.9278 -85.1189 44° Northeast 239 275 3,400 -600 Descending Chicago Center
08:37PM 40.9644 -85.0658 48° Northeast 217 250 3,100 -480 Descending Chicago Center
08:38PM 41.0097 -85.0572 North 200 230 2,500 -600 Descending Chicago Center